sensor_id;sensor_type;location;lat;lon;timestamp;P1;durP1;ratioP1;P2;durP2;ratioP2
7263;SDS011;3673;52.480;13.348;2023-06-04T00:01:44;3.05;;;2.13;;
7263;SDS011;3673;52.480;13.348;2023-06-04T00:04:11;4.03;;;2.60;;
7263;SDS011;3673;52.480;13.348;2023-06-04T00:06:40;4.10;;;2.35;;
7263;SDS011;3673;52.480;13.348;2023-06-04T00:09:07;5.90;;;2.70;;
7263;SDS011;3673;52.480;13.348;2023-06-04T00:11:34;4.40;;;2.53;;
7263;SDS011;3673;52.480;13.348;2023-06-04T00:14:02;5.90;;;2.60;;
7263;SDS011;3673;52.480;13.348;2023-06-04T00:16:29;6.68;;;3.50;;
7263;SDS011;3673;52.480;13.348;2023-06-04T00:18:55;4.47;;;2.78;;
7263;SDS011;3673;52.480;13.348;2023-06-04T00:21:22;5.00;;;2.72;;
7263;SDS011;3673;52.480;13.348;2023-06-04T00:23:50;3.67;;;2.58;;
7263;SDS011;3673;52.480;13.348;2023-06-04T00:26:17;4.13;;;2.90;;
7263;SDS011;3673;52.480;13.348;2023-06-04T00:28:45;4.07;;;2.63;;
7263;SDS011;3673;52.480;13.348;2023-06-04T00:31:11;3.65;;;2.38;;
7263;SDS011;3673;52.480;13.348;2023-06-04T00:33:38;2.65;;;2.00;;
7263;SDS011;3673;52.480;13.348;2023-06-04T00:36:05;2.75;;;2.00;;
7263;SDS011;3673;52.480;13.348;2023-06-04T00:38:32;7.00;;;1.83;;
7263;SDS011;3673;52.480;13.348;2023-06-04T00:41:00;4.15;;;2.20;;
7263;SDS011;3673;52.480;13.348;2023-06-04T00:43:27;3.35;;;1.88;;
7263;SDS011;3673;52.480;13.348;2023-06-04T00:45:56;3.85;;;1.98;;
7263;SDS011;3673;52.480;13.348;2023-06-04T00:48:23;6.13;;;2.05;;
7263;SDS011;3673;52.480;13.348;2023-06-04T00:50:52;4.95;;;1.90;;
7263;SDS011;3673;52.480;13.348;2023-06-04T00:53:19;2.58;;;1.52;;
7263;SDS011;3673;52.480;13.348;2023-06-04T00:55:47;3.05;;;2.30;;
7263;SDS011;3673;52.480;13.348;2023-06-04T00:58:15;3.00;;;1.80;;
7263;SDS011;3673;52.480;13.348;2023-06-04T01:00:41;3.30;;;2.10;;
7263;SDS011;3673;52.480;13.348;2023-06-04T01:03:10;2.40;;;1.70;;
7263;SDS011;3673;52.480;13.348;2023-06-04T01:05:41;2.75;;;1.95;;
7263;SDS011;3673;52.480;13.348;2023-06-04T01:08:17;3.33;;;2.00;;
7263;SDS011;3673;52.480;13.348;2023-06-04T01:10:50;3.03;;;2.00;;
7263;SDS011;3673;52.480;13.348;2023-06-04T01:13:18;3.47;;;1.90;;
7263;SDS011;3673;52.480;13.348;2023-06-04T01:15:45;3.55;;;2.10;;
7263;SDS011;3673;52.480;13.348;2023-06-04T01:18:12;2.63;;;2.00;;
7263;SDS011;3673;52.480;13.348;2023-06-04T01:20:52;6.03;;;2.72;;
7263;SDS011;3673;52.480;13.348;2023-06-04T01:23:25;3.35;;;2.22;;
7263;SDS011;3673;52.480;13.348;2023-06-04T01:28:29;4.43;;;2.15;;
7263;SDS011;3673;52.480;13.348;2023-06-04T01:30:58;5.63;;;2.30;;
7263;SDS011;3673;52.480;13.348;2023-06-04T01:33:27;5.07;;;1.88;;
7263;SDS011;3673;52.480;13.348;2023-06-04T01:35:54;2.28;;;1.63;;
7263;SDS011;3673;52.480;13.348;2023-06-04T01:38:21;4.00;;;2.42;;
7263;SDS011;3673;52.480;13.348;2023-06-04T01:40:48;5.22;;;2.00;;
7263;SDS011;3673;52.480;13.348;2023-06-04T01:43:15;2.75;;;1.85;;
7263;SDS011;3673;52.480;13.348;2023-06-04T01:45:43;3.20;;;1.85;;
7263;SDS011;3673;52.480;13.348;2023-06-04T01:48:11;8.25;;;2.10;;
7263;SDS011;3673;52.480;13.348;2023-06-04T01:50:38;2.70;;;1.65;;
7263;SDS011;3673;52.480;13.348;2023-06-04T01:53:05;2.17;;;1.55;;
7263;SDS011;3673;52.480;13.348;2023-06-04T01:55:32;4.65;;;2.05;;
7263;SDS011;3673;52.480;13.348;2023-06-04T01:57:59;2.85;;;1.83;;
7263;SDS011;3673;52.480;13.348;2023-06-04T02:00:26;4.82;;;2.25;;
7263;SDS011;3673;52.480;13.348;2023-06-04T02:02:54;5.65;;;2.03;;
7263;SDS011;3673;52.480;13.348;2023-06-04T02:05:21;3.60;;;1.60;;
7263;SDS011;3673;52.480;13.348;2023-06-04T02:07:49;2.97;;;1.75;;
7263;SDS011;3673;52.480;13.348;2023-06-04T02:10:17;3.80;;;2.00;;
7263;SDS011;3673;52.480;13.348;2023-06-04T02:12:55;2.63;;;1.85;;
7263;SDS011;3673;52.480;13.348;2023-06-04T02:15:23;3.15;;;1.50;;
7263;SDS011;3673;52.480;13.348;2023-06-04T02:17:53;3.38;;;1.85;;
7263;SDS011;3673;52.480;13.348;2023-06-04T02:20:24;2.95;;;1.80;;
7263;SDS011;3673;52.480;13.348;2023-06-04T02:22:51;2.63;;;1.98;;
7263;SDS011;3673;52.480;13.348;2023-06-04T02:25:19;4.93;;;2.22;;
7263;SDS011;3673;52.480;13.348;2023-06-04T02:27:46;2.20;;;1.80;;
7263;SDS011;3673;52.480;13.348;2023-06-04T02:30:13;4.88;;;1.60;;
7263;SDS011;3673;52.480;13.348;2023-06-04T02:32:42;2.28;;;1.65;;
7263;SDS011;3673;52.480;13.348;2023-06-04T02:35:10;2.72;;;1.70;;
7263;SDS011;3673;52.480;13.348;2023-06-04T02:37:37;4.00;;;1.70;;
7263;SDS011;3673;52.480;13.348;2023-06-04T02:40:04;5.68;;;1.85;;
7263;SDS011;3673;52.480;13.348;2023-06-04T02:42:33;3.85;;;1.70;;
7263;SDS011;3673;52.480;13.348;2023-06-04T02:44:59;2.90;;;1.85;;
7263;SDS011;3673;52.480;13.348;2023-06-04T02:47:26;3.20;;;1.15;;
7263;SDS011;3673;52.480;13.348;2023-06-04T02:49:53;5.70;;;1.67;;
7263;SDS011;3673;52.480;13.348;2023-06-04T02:52:21;3.60;;;2.08;;
7263;SDS011;3673;52.480;13.348;2023-06-04T02:54:50;2.75;;;1.70;;
7263;SDS011;3673;52.480;13.348;2023-06-04T02:57:17;3.67;;;2.00;;
7263;SDS011;3673;52.480;13.348;2023-06-04T02:59:43;3.67;;;2.00;;
7263;SDS011;3673;52.480;13.348;2023-06-04T03:02:10;3.40;;;1.50;;
7263;SDS011;3673;52.480;13.348;2023-06-04T03:04:37;2.70;;;2.00;;
7263;SDS011;3673;52.480;13.348;2023-06-04T03:07:04;5.00;;;1.98;;
7263;SDS011;3673;52.480;13.348;2023-06-04T03:09:34;4.93;;;2.38;;
7263;SDS011;3673;52.480;13.348;2023-06-04T03:12:01;5.65;;;2.10;;
7263;SDS011;3673;52.480;13.348;2023-06-04T03:14:28;4.25;;;2.47;;
7263;SDS011;3673;52.480;13.348;2023-06-04T03:16:57;3.65;;;2.22;;
7263;SDS011;3673;52.480;13.348;2023-06-04T03:19:32;3.03;;;2.00;;
7263;SDS011;3673;52.480;13.348;2023-06-04T03:22:00;4.55;;;2.17;;
7263;SDS011;3673;52.480;13.348;2023-06-04T03:24:30;7.93;;;2.40;;
7263;SDS011;3673;52.480;13.348;2023-06-04T03:27:01;3.85;;;2.35;;
7263;SDS011;3673;52.480;13.348;2023-06-04T03:29:29;4.78;;;2.15;;
7263;SDS011;3673;52.480;13.348;2023-06-04T03:31:56;4.18;;;2.50;;
7263;SDS011;3673;52.480;13.348;2023-06-04T03:34:23;3.00;;;2.20;;
7263;SDS011;3673;52.480;13.348;2023-06-04T03:36:50;4.60;;;2.30;;
7263;SDS011;3673;52.480;13.348;2023-06-04T03:39:17;4.15;;;2.67;;
7263;SDS011;3673;52.480;13.348;2023-06-04T03:41:45;5.22;;;2.42;;
7263;SDS011;3673;52.480;13.348;2023-06-04T03:44:12;4.22;;;1.95;;
7263;SDS011;3673;52.480;13.348;2023-06-04T03:46:39;5.80;;;2.35;;
7263;SDS011;3673;52.480;13.348;2023-06-04T03:49:06;4.05;;;2.42;;
7263;SDS011;3673;52.480;13.348;2023-06-04T03:51:34;4.05;;;2.05;;
7263;SDS011;3673;52.480;13.348;2023-06-04T03:54:01;3.45;;;2.10;;
7263;SDS011;3673;52.480;13.348;2023-06-04T03:56:29;3.92;;;2.35;;
7263;SDS011;3673;52.480;13.348;2023-06-04T03:58:57;6.07;;;2.80;;
7263;SDS011;3673;52.480;13.348;2023-06-04T04:01:24;11.48;;;2.83;;
7263;SDS011;3673;52.480;13.348;2023-06-04T04:03:51;4.07;;;2.03;;
7263;SDS011;3673;52.480;13.348;2023-06-04T04:06:18;5.28;;;2.17;;
7263;SDS011;3673;52.480;13.348;2023-06-04T04:08:45;4.43;;;2.20;;
7263;SDS011;3673;52.480;13.348;2023-06-04T04:11:13;3.38;;;2.00;;
7263;SDS011;3673;52.480;13.348;2023-06-04T04:13:41;3.75;;;2.15;;
7263;SDS011;3673;52.480;13.348;2023-06-04T04:16:11;6.60;;;2.10;;
7263;SDS011;3673;52.480;13.348;2023-06-04T04:18:40;5.93;;;2.33;;
7263;SDS011;3673;52.480;13.348;2023-06-04T04:21:09;3.33;;;1.85;;
7263;SDS011;3673;52.480;13.348;2023-06-04T04:23:37;4.45;;;1.80;;
7263;SDS011;3673;52.480;13.348;2023-06-04T04:26:05;3.55;;;1.80;;
7263;SDS011;3673;52.480;13.348;2023-06-04T04:28:33;3.33;;;1.83;;
7263;SDS011;3673;52.480;13.348;2023-06-04T04:31:00;2.88;;;1.98;;
7263;SDS011;3673;52.480;13.348;2023-06-04T04:33:29;2.25;;;1.48;;
7263;SDS011;3673;52.480;13.348;2023-06-04T04:36:01;3.80;;;1.85;;
7263;SDS011;3673;52.480;13.348;2023-06-04T04:38:28;1.75;;;1.55;;
7263;SDS011;3673;52.480;13.348;2023-06-04T04:40:58;3.05;;;1.73;;
7263;SDS011;3673;52.480;13.348;2023-06-04T04:43:30;4.63;;;1.73;;
7263;SDS011;3673;52.480;13.348;2023-06-04T04:45:58;3.15;;;1.77;;
7263;SDS011;3673;52.480;13.348;2023-06-04T04:48:25;2.45;;;1.50;;
7263;SDS011;3673;52.480;13.348;2023-06-04T04:50:53;3.70;;;1.65;;
7263;SDS011;3673;52.480;13.348;2023-06-04T04:53:20;6.50;;;2.00;;
7263;SDS011;3673;52.480;13.348;2023-06-04T04:55:47;2.85;;;1.70;;
7263;SDS011;3673;52.480;13.348;2023-06-04T04:58:14;3.15;;;2.42;;
7263;SDS011;3673;52.480;13.348;2023-06-04T05:00:41;2.53;;;1.83;;
7263;SDS011;3673;52.480;13.348;2023-06-04T05:03:08;4.20;;;1.67;;
7263;SDS011;3673;52.480;13.348;2023-06-04T05:05:35;3.13;;;1.77;;
7263;SDS011;3673;52.480;13.348;2023-06-04T05:08:04;3.90;;;2.10;;
7263;SDS011;3673;52.480;13.348;2023-06-04T05:10:31;3.42;;;1.90;;
7263;SDS011;3673;52.480;13.348;2023-06-04T05:12:58;3.85;;;2.10;;
7263;SDS011;3673;52.480;13.348;2023-06-04T05:15:26;2.33;;;1.75;;
7263;SDS011;3673;52.480;13.348;2023-06-04T05:17:54;4.82;;;1.80;;
7263;SDS011;3673;52.480;13.348;2023-06-04T05:20:21;6.95;;;2.05;;
7263;SDS011;3673;52.480;13.348;2023-06-04T05:22:48;3.85;;;1.95;;
7263;SDS011;3673;52.480;13.348;2023-06-04T05:25:18;4.88;;;2.45;;
7263;SDS011;3673;52.480;13.348;2023-06-04T05:27:44;2.08;;;1.58;;
7263;SDS011;3673;52.480;13.348;2023-06-04T05:30:14;2.25;;;1.67;;
7263;SDS011;3673;52.480;13.348;2023-06-04T05:32:41;2.83;;;1.60;;
7263;SDS011;3673;52.480;13.348;2023-06-04T05:35:08;3.00;;;1.70;;
7263;SDS011;3673;52.480;13.348;2023-06-04T05:37:35;2.58;;;1.98;;
7263;SDS011;3673;52.480;13.348;2023-06-04T05:40:05;2.28;;;1.48;;
7263;SDS011;3673;52.480;13.348;2023-06-04T05:42:36;3.08;;;1.80;;
7263;SDS011;3673;52.480;13.348;2023-06-04T05:45:03;3.17;;;1.75;;
7263;SDS011;3673;52.480;13.348;2023-06-04T05:47:33;6.18;;;2.15;;
7263;SDS011;3673;52.480;13.348;2023-06-04T05:50:00;2.63;;;1.70;;
7263;SDS011;3673;52.480;13.348;2023-06-04T05:52:27;6.82;;;2.00;;
7263;SDS011;3673;52.480;13.348;2023-06-04T05:54:54;3.33;;;1.80;;
7263;SDS011;3673;52.480;13.348;2023-06-04T05:57:20;3.40;;;2.05;;
7263;SDS011;3673;52.480;13.348;2023-06-04T05:59:48;8.35;;;3.15;;
7263;SDS011;3673;52.480;13.348;2023-06-04T06:02:15;2.50;;;1.50;;
7263;SDS011;3673;52.480;13.348;2023-06-04T06:04:42;5.35;;;2.10;;
7263;SDS011;3673;52.480;13.348;2023-06-04T06:07:09;4.85;;;1.40;;
7263;SDS011;3673;52.480;13.348;2023-06-04T06:09:36;3.92;;;2.55;;
7263;SDS011;3673;52.480;13.348;2023-06-04T06:12:03;2.13;;;1.77;;
7263;SDS011;3673;52.480;13.348;2023-06-04T06:14:31;5.00;;;1.60;;
7263;SDS011;3673;52.480;13.348;2023-06-04T06:16:59;2.25;;;1.45;;
7263;SDS011;3673;52.480;13.348;2023-06-04T06:19:28;4.10;;;1.73;;
7263;SDS011;3673;52.480;13.348;2023-06-04T06:21:55;5.38;;;1.50;;
7263;SDS011;3673;52.480;13.348;2023-06-04T06:24:23;2.45;;;1.48;;
7263;SDS011;3673;52.480;13.348;2023-06-04T06:26:50;1.95;;;1.48;;
7263;SDS011;3673;52.480;13.348;2023-06-04T06:29:17;7.03;;;1.73;;
7263;SDS011;3673;52.480;13.348;2023-06-04T06:31:43;2.13;;;1.55;;
7263;SDS011;3673;52.480;13.348;2023-06-04T06:34:11;4.53;;;2.08;;
7263;SDS011;3673;52.480;13.348;2023-06-04T06:36:38;1.77;;;1.50;;
7263;SDS011;3673;52.480;13.348;2023-06-04T06:39:05;2.30;;;1.40;;
7263;SDS011;3673;52.480;13.348;2023-06-04T06:41:31;1.80;;;1.10;;
7263;SDS011;3673;52.480;13.348;2023-06-04T06:43:58;1.35;;;1.10;;
7263;SDS011;3673;52.480;13.348;2023-06-04T06:46:25;4.53;;;1.50;;
7263;SDS011;3673;52.480;13.348;2023-06-04T06:48:52;4.70;;;1.48;;
7263;SDS011;3673;52.480;13.348;2023-06-04T06:51:20;3.03;;;2.05;;
7263;SDS011;3673;52.480;13.348;2023-06-04T06:53:48;2.80;;;1.35;;
7263;SDS011;3673;52.480;13.348;2023-06-04T06:56:15;2.30;;;1.15;;
7263;SDS011;3673;52.480;13.348;2023-06-04T06:58:43;2.13;;;1.55;;
7263;SDS011;3673;52.480;13.348;2023-06-04T07:01:10;1.80;;;1.38;;
7263;SDS011;3673;52.480;13.348;2023-06-04T07:03:37;2.10;;;1.38;;
7263;SDS011;3673;52.480;13.348;2023-06-04T07:06:04;2.63;;;1.27;;
7263;SDS011;3673;52.480;13.348;2023-06-04T07:08:33;1.58;;;1.10;;
7263;SDS011;3673;52.480;13.348;2023-06-04T07:11:00;2.40;;;1.27;;
7263;SDS011;3673;52.480;13.348;2023-06-04T07:13:29;2.15;;;1.15;;
7263;SDS011;3673;52.480;13.348;2023-06-04T07:15:57;2.72;;;1.10;;
7263;SDS011;3673;52.480;13.348;2023-06-04T07:18:24;2.17;;;1.10;;
7263;SDS011;3673;52.480;13.348;2023-06-04T07:20:50;1.30;;;0.93;;
7263;SDS011;3673;52.480;13.348;2023-06-04T07:23:17;4.00;;;1.30;;
7263;SDS011;3673;52.480;13.348;2023-06-04T07:25:45;2.05;;;1.25;;
7263;SDS011;3673;52.480;13.348;2023-06-04T07:28:12;1.98;;;0.95;;
7263;SDS011;3673;52.480;13.348;2023-06-04T07:30:40;0.93;;;0.93;;
7263;SDS011;3673;52.480;13.348;2023-06-04T07:33:06;5.50;;;1.00;;
7263;SDS011;3673;52.480;13.348;2023-06-04T07:35:33;0.95;;;0.85;;
7263;SDS011;3673;52.480;13.348;2023-06-04T07:38:00;3.95;;;0.90;;
7263;SDS011;3673;52.480;13.348;2023-06-04T07:40:27;2.88;;;1.13;;
7263;SDS011;3673;52.480;13.348;2023-06-04T07:42:55;5.22;;;1.23;;
7263;SDS011;3673;52.480;13.348;2023-06-04T07:45:22;2.42;;;1.00;;
7263;SDS011;3673;52.480;13.348;2023-06-04T07:47:48;1.90;;;0.93;;
7263;SDS011;3673;52.480;13.348;2023-06-04T07:50:15;7.15;;;1.60;;
7263;SDS011;3673;52.480;13.348;2023-06-04T07:52:42;2.15;;;0.90;;
7263;SDS011;3673;52.480;13.348;2023-06-04T07:55:09;1.98;;;0.82;;
7263;SDS011;3673;52.480;13.348;2023-06-04T07:57:36;1.65;;;1.08;;
7263;SDS011;3673;52.480;13.348;2023-06-04T08:00:05;4.85;;;0.75;;
7263;SDS011;3673;52.480;13.348;2023-06-04T08:02:33;1.38;;;1.00;;
7263;SDS011;3673;52.480;13.348;2023-06-04T08:05:00;2.08;;;1.25;;
7263;SDS011;3673;52.480;13.348;2023-06-04T08:07:28;1.33;;;0.90;;
7263;SDS011;3673;52.480;13.348;2023-06-04T08:09:55;1.35;;;0.90;;
7263;SDS011;3673;52.480;13.348;2023-06-04T08:12:22;2.17;;;0.80;;
7263;SDS011;3673;52.480;13.348;2023-06-04T08:14:49;1.40;;;1.00;;
7263;SDS011;3673;52.480;13.348;2023-06-04T08:17:17;2.50;;;1.08;;
7263;SDS011;3673;52.480;13.348;2023-06-04T08:19:44;1.38;;;1.00;;
7263;SDS011;3673;52.480;13.348;2023-06-04T08:22:10;2.05;;;1.13;;
7263;SDS011;3673;52.480;13.348;2023-06-04T08:24:37;2.20;;;1.55;;
7263;SDS011;3673;52.480;13.348;2023-06-04T08:27:04;0.82;;;0.80;;
7263;SDS011;3673;52.480;13.348;2023-06-04T08:29:33;2.45;;;0.88;;
7263;SDS011;3673;52.480;13.348;2023-06-04T08:32:00;1.70;;;0.88;;
7263;SDS011;3673;52.480;13.348;2023-06-04T08:34:28;5.20;;;1.63;;
7263;SDS011;3673;52.480;13.348;2023-06-04T08:36:55;8.27;;;1.80;;
7263;SDS011;3673;52.480;13.348;2023-06-04T08:39:21;3.53;;;1.08;;
7263;SDS011;3673;52.480;13.348;2023-06-04T08:41:49;2.05;;;1.08;;
7263;SDS011;3673;52.480;13.348;2023-06-04T08:44:19;3.55;;;1.17;;
7263;SDS011;3673;52.480;13.348;2023-06-04T08:46:47;1.88;;;1.00;;
7263;SDS011;3673;52.480;13.348;2023-06-04T08:49:18;3.85;;;1.20;;
7263;SDS011;3673;52.480;13.348;2023-06-04T08:51:48;3.60;;;1.77;;
7263;SDS011;3673;52.480;13.348;2023-06-04T08:54:15;1.63;;;1.10;;
7263;SDS011;3673;52.480;13.348;2023-06-04T08:56:42;2.58;;;1.20;;
7263;SDS011;3673;52.480;13.348;2023-06-04T08:59:10;7.72;;;3.55;;
7263;SDS011;3673;52.480;13.348;2023-06-04T09:01:38;4.93;;;2.15;;
7263;SDS011;3673;52.480;13.348;2023-06-04T09:04:10;4.78;;;2.00;;
7263;SDS011;3673;52.480;13.348;2023-06-04T09:06:37;4.72;;;2.05;;
7263;SDS011;3673;52.480;13.348;2023-06-04T09:09:08;3.58;;;2.00;;
7263;SDS011;3673;52.480;13.348;2023-06-04T09:11:37;3.40;;;2.03;;
7263;SDS011;3673;52.480;13.348;2023-06-04T09:14:11;4.20;;;1.40;;
7263;SDS011;3673;52.480;13.348;2023-06-04T09:16:42;2.85;;;1.42;;
7263;SDS011;3673;52.480;13.348;2023-06-04T09:19:13;2.85;;;1.90;;
7263;SDS011;3673;52.480;13.348;2023-06-04T09:21:48;4.13;;;1.65;;
7263;SDS011;3673;52.480;13.348;2023-06-04T09:24:17;2.95;;;1.13;;
7263;SDS011;3673;52.480;13.348;2023-06-04T09:26:45;1.45;;;1.00;;
7263;SDS011;3673;52.480;13.348;2023-06-04T09:29:12;4.13;;;1.25;;
7263;SDS011;3673;52.480;13.348;2023-06-04T09:31:40;5.60;;;1.30;;
7263;SDS011;3673;52.480;13.348;2023-06-04T09:34:07;2.97;;;1.33;;
7263;SDS011;3673;52.480;13.348;2023-06-04T09:36:35;1.77;;;0.95;;
7263;SDS011;3673;52.480;13.348;2023-06-04T09:39:03;1.75;;;0.90;;
7263;SDS011;3673;52.480;13.348;2023-06-04T09:41:41;2.00;;;1.13;;
7263;SDS011;3673;52.480;13.348;2023-06-04T09:44:08;3.65;;;1.40;;
7263;SDS011;3673;52.480;13.348;2023-06-04T09:46:35;14.30;;;1.70;;
7263;SDS011;3673;52.480;13.348;2023-06-04T09:49:03;2.78;;;1.38;;
7263;SDS011;3673;52.480;13.348;2023-06-04T09:51:31;1.90;;;1.17;;
7263;SDS011;3673;52.480;13.348;2023-06-04T09:53:59;4.15;;;1.60;;
7263;SDS011;3673;52.480;13.348;2023-06-04T09:56:27;2.08;;;1.10;;
7263;SDS011;3673;52.480;13.348;2023-06-04T09:58:57;4.07;;;1.30;;
7263;SDS011;3673;52.480;13.348;2023-06-04T10:01:27;1.88;;;1.10;;
7263;SDS011;3673;52.480;13.348;2023-06-04T10:03:56;2.20;;;1.30;;
7263;SDS011;3673;52.480;13.348;2023-06-04T10:06:28;3.40;;;1.77;;
7263;SDS011;3673;52.480;13.348;2023-06-04T10:09:03;4.80;;;2.53;;
7263;SDS011;3673;52.480;13.348;2023-06-04T10:11:34;4.30;;;2.40;;
7263;SDS011;3673;52.480;13.348;2023-06-04T10:14:06;3.42;;;1.60;;
7263;SDS011;3673;52.480;13.348;2023-06-04T10:16:40;2.95;;;2.13;;
7263;SDS011;3673;52.480;13.348;2023-06-04T10:19:08;1.50;;;1.08;;
7263;SDS011;3673;52.480;13.348;2023-06-04T10:21:36;1.70;;;1.60;;
7263;SDS011;3673;52.480;13.348;2023-06-04T10:24:04;2.00;;;1.35;;
7263;SDS011;3673;52.480;13.348;2023-06-04T10:26:32;1.48;;;0.98;;
7263;SDS011;3673;52.480;13.348;2023-06-04T10:29:00;2.20;;;1.25;;
7263;SDS011;3673;52.480;13.348;2023-06-04T10:31:29;5.32;;;2.17;;
7263;SDS011;3673;52.480;13.348;2023-06-04T10:33:56;3.88;;;2.03;;
7263;SDS011;3673;52.480;13.348;2023-06-04T10:36:23;5.82;;;2.55;;
7263;SDS011;3673;52.480;13.348;2023-06-04T10:38:51;2.67;;;1.70;;
7263;SDS011;3673;52.480;13.348;2023-06-04T10:41:21;4.45;;;3.58;;
7263;SDS011;3673;52.480;13.348;2023-06-04T10:43:50;5.35;;;2.50;;
7263;SDS011;3673;52.480;13.348;2023-06-04T10:46:18;9.20;;;2.60;;
7263;SDS011;3673;52.480;13.348;2023-06-04T10:48:50;4.82;;;2.38;;
7263;SDS011;3673;52.480;13.348;2023-06-04T10:51:28;3.45;;;2.20;;
7263;SDS011;3673;52.480;13.348;2023-06-04T10:53:56;4.38;;;2.55;;
7263;SDS011;3673;52.480;13.348;2023-06-04T10:56:26;3.65;;;1.65;;
7263;SDS011;3673;52.480;13.348;2023-06-04T10:58:54;3.15;;;2.15;;
7263;SDS011;3673;52.480;13.348;2023-06-04T11:01:24;4.65;;;1.85;;
7263;SDS011;3673;52.480;13.348;2023-06-04T11:03:53;1.23;;;1.08;;
7263;SDS011;3673;52.480;13.348;2023-06-04T11:06:21;1.92;;;1.00;;
7263;SDS011;3673;52.480;13.348;2023-06-04T11:09:00;3.05;;;1.85;;
7263;SDS011;3673;52.480;13.348;2023-06-04T11:11:28;3.95;;;1.48;;
7263;SDS011;3673;52.480;13.348;2023-06-04T11:13:55;2.53;;;1.33;;
7263;SDS011;3673;52.480;13.348;2023-06-04T11:16:32;3.10;;;1.52;;
7263;SDS011;3673;52.480;13.348;2023-06-04T11:19:00;4.28;;;1.38;;
7263;SDS011;3673;52.480;13.348;2023-06-04T11:21:27;6.45;;;1.95;;
7263;SDS011;3673;52.480;13.348;2023-06-04T11:23:54;3.60;;;1.15;;
7263;SDS011;3673;52.480;13.348;2023-06-04T11:26:29;2.10;;;1.10;;
7263;SDS011;3673;52.480;13.348;2023-06-04T11:28:57;3.45;;;1.55;;
7263;SDS011;3673;52.480;13.348;2023-06-04T11:31:24;4.45;;;1.38;;
7263;SDS011;3673;52.480;13.348;2023-06-04T11:33:51;1.92;;;1.40;;
7263;SDS011;3673;52.480;13.348;2023-06-04T11:36:23;3.55;;;1.55;;
7263;SDS011;3673;52.480;13.348;2023-06-04T11:38:55;2.90;;;1.40;;
7263;SDS011;3673;52.480;13.348;2023-06-04T11:41:23;1.88;;;1.45;;
7263;SDS011;3673;52.480;13.348;2023-06-04T11:43:52;2.90;;;1.13;;
7263;SDS011;3673;52.480;13.348;2023-06-04T11:46:20;7.00;;;2.08;;
7263;SDS011;3673;52.480;13.348;2023-06-04T11:48:47;2.00;;;1.73;;
7263;SDS011;3673;52.480;13.348;2023-06-04T11:51:14;4.60;;;3.25;;
7263;SDS011;3673;52.480;13.348;2023-06-04T11:53:43;14.77;;;8.00;;
7263;SDS011;3673;52.480;13.348;2023-06-04T11:56:10;43.78;;;27.42;;
7263;SDS011;3673;52.480;13.348;2023-06-04T11:58:37;40.35;;;26.98;;
7263;SDS011;3673;52.480;13.348;2023-06-04T12:01:05;30.50;;;21.33;;
7263;SDS011;3673;52.480;13.348;2023-06-04T12:03:33;35.78;;;25.27;;
7263;SDS011;3673;52.480;13.348;2023-06-04T12:06:09;56.42;;;37.95;;
7263;SDS011;3673;52.480;13.348;2023-06-04T12:08:45;7.60;;;4.30;;
7263;SDS011;3673;52.480;13.348;2023-06-04T12:13:56;9.38;;;4.65;;
7263;SDS011;3673;52.480;13.348;2023-06-04T12:16:25;2.70;;;1.73;;
7263;SDS011;3673;52.480;13.348;2023-06-04T12:18:53;8.00;;;5.70;;
7263;SDS011;3673;52.480;13.348;2023-06-04T12:21:32;43.17;;;29.15;;
7263;SDS011;3673;52.480;13.348;2023-06-04T12:24:10;15.98;;;11.32;;
7263;SDS011;3673;52.480;13.348;2023-06-04T12:26:39;6.65;;;5.03;;
7263;SDS011;3673;52.480;13.348;2023-06-04T12:29:09;12.20;;;8.27;;
7263;SDS011;3673;52.480;13.348;2023-06-04T12:31:37;4.90;;;2.13;;
7263;SDS011;3673;52.480;13.348;2023-06-04T12:34:05;13.13;;;8.02;;
7263;SDS011;3673;52.480;13.348;2023-06-04T12:36:31;7.18;;;5.57;;
7263;SDS011;3673;52.480;13.348;2023-06-04T12:39:00;14.23;;;9.95;;
7263;SDS011;3673;52.480;13.348;2023-06-04T12:41:29;17.67;;;11.15;;
7263;SDS011;3673;52.480;13.348;2023-06-04T12:43:58;7.47;;;2.97;;
7263;SDS011;3673;52.480;13.348;2023-06-04T12:46:26;6.25;;;1.33;;
7263;SDS011;3673;52.480;13.348;2023-06-04T12:48:54;1.85;;;1.08;;
7263;SDS011;3673;52.480;13.348;2023-06-04T12:51:21;5.65;;;2.22;;
7263;SDS011;3673;52.480;13.348;2023-06-04T12:53:48;2.15;;;1.40;;
7263;SDS011;3673;52.480;13.348;2023-06-04T12:56:16;1.73;;;1.23;;
7263;SDS011;3673;52.480;13.348;2023-06-04T12:58:44;6.03;;;3.55;;
7263;SDS011;3673;52.480;13.348;2023-06-04T13:01:10;2.63;;;1.92;;
7263;SDS011;3673;52.480;13.348;2023-06-04T13:03:39;2.70;;;1.58;;
7263;SDS011;3673;52.480;13.348;2023-06-04T13:06:06;3.83;;;1.55;;
7263;SDS011;3673;52.480;13.348;2023-06-04T13:08:33;1.92;;;1.20;;
7263;SDS011;3673;52.480;13.348;2023-06-04T13:11:00;2.13;;;1.42;;
7263;SDS011;3673;52.480;13.348;2023-06-04T13:13:27;1.25;;;1.15;;
7263;SDS011;3673;52.480;13.348;2023-06-04T13:15:56;2.05;;;1.38;;
7263;SDS011;3673;52.480;13.348;2023-06-04T13:18:22;3.05;;;1.20;;
7263;SDS011;3673;52.480;13.348;2023-06-04T13:20:49;1.45;;;1.30;;
7263;SDS011;3673;52.480;13.348;2023-06-04T13:23:16;3.17;;;1.70;;
7263;SDS011;3673;52.480;13.348;2023-06-04T13:25:43;2.95;;;1.73;;
7263;SDS011;3673;52.480;13.348;2023-06-04T13:28:10;3.03;;;1.80;;
7263;SDS011;3673;52.480;13.348;2023-06-04T13:30:36;3.58;;;1.73;;
7263;SDS011;3673;52.480;13.348;2023-06-04T13:33:05;2.63;;;1.52;;
7263;SDS011;3673;52.480;13.348;2023-06-04T13:35:32;2.15;;;1.60;;
7263;SDS011;3673;52.480;13.348;2023-06-04T13:37:59;3.78;;;2.15;;
7263;SDS011;3673;52.480;13.348;2023-06-04T13:40:26;3.33;;;1.83;;
7263;SDS011;3673;52.480;13.348;2023-06-04T13:42:53;1.73;;;1.20;;
7263;SDS011;3673;52.480;13.348;2023-06-04T13:45:20;2.70;;;1.52;;
7263;SDS011;3673;52.480;13.348;2023-06-04T13:47:47;4.18;;;1.35;;
7263;SDS011;3673;52.480;13.348;2023-06-04T13:50:15;1.60;;;1.50;;
7263;SDS011;3673;52.480;13.348;2023-06-04T13:52:42;3.05;;;1.63;;
7263;SDS011;3673;52.480;13.348;2023-06-04T13:55:09;2.80;;;2.22;;
7263;SDS011;3673;52.480;13.348;2023-06-04T13:57:37;3.47;;;1.65;;
7263;SDS011;3673;52.480;13.348;2023-06-04T14:00:05;2.25;;;1.77;;
7263;SDS011;3673;52.480;13.348;2023-06-04T14:02:33;3.38;;;1.70;;
7263;SDS011;3673;52.480;13.348;2023-06-04T14:05:00;5.28;;;2.33;;
7263;SDS011;3673;52.480;13.348;2023-06-04T14:07:28;5.18;;;2.78;;
7263;SDS011;3673;52.480;13.348;2023-06-04T14:09:55;3.25;;;2.03;;
7263;SDS011;3673;52.480;13.348;2023-06-04T14:12:21;5.15;;;2.35;;
7263;SDS011;3673;52.480;13.348;2023-06-04T14:14:49;2.85;;;2.50;;
7263;SDS011;3673;52.480;13.348;2023-06-04T14:17:16;3.83;;;2.00;;
7263;SDS011;3673;52.480;13.348;2023-06-04T14:19:43;4.65;;;2.10;;
7263;SDS011;3673;52.480;13.348;2023-06-04T14:22:10;2.70;;;2.28;;
7263;SDS011;3673;52.480;13.348;2023-06-04T14:24:39;1.70;;;1.25;;
7263;SDS011;3673;52.480;13.348;2023-06-04T14:27:06;5.65;;;1.95;;
7263;SDS011;3673;52.480;13.348;2023-06-04T14:29:34;4.35;;;1.60;;
7263;SDS011;3673;52.480;13.348;2023-06-04T14:32:01;2.03;;;1.50;;
7263;SDS011;3673;52.480;13.348;2023-06-04T14:34:28;3.47;;;2.35;;
7263;SDS011;3673;52.480;13.348;2023-06-04T14:36:57;3.08;;;2.60;;
7263;SDS011;3673;52.480;13.348;2023-06-04T14:39:24;3.10;;;1.90;;
7263;SDS011;3673;52.480;13.348;2023-06-04T14:41:52;2.60;;;2.20;;
7263;SDS011;3673;52.480;13.348;2023-06-04T14:44:19;3.20;;;2.42;;
7263;SDS011;3673;52.480;13.348;2023-06-04T14:46:48;3.92;;;3.05;;
7263;SDS011;3673;52.480;13.348;2023-06-04T14:49:16;5.38;;;2.20;;
7263;SDS011;3673;52.480;13.348;2023-06-04T14:51:42;3.28;;;2.15;;
7263;SDS011;3673;52.480;13.348;2023-06-04T14:54:09;6.97;;;4.30;;
7263;SDS011;3673;52.480;13.348;2023-06-04T14:56:36;3.45;;;2.70;;
7263;SDS011;3673;52.480;13.348;2023-06-04T14:59:04;6.68;;;2.35;;
7263;SDS011;3673;52.480;13.348;2023-06-04T15:01:33;3.70;;;2.20;;
7263;SDS011;3673;52.480;13.348;2023-06-04T15:04:01;5.07;;;2.30;;
7263;SDS011;3673;52.480;13.348;2023-06-04T15:06:28;4.07;;;2.17;;
7263;SDS011;3673;52.480;13.348;2023-06-04T15:08:55;9.40;;;3.53;;
7263;SDS011;3673;52.480;13.348;2023-06-04T15:11:21;4.43;;;2.17;;